Time;durP1;ratioP1;P1;durP2;ratioP2;P2;SDS_P1;SDS_P2;PMS_P1;PMS_P2;Temp;Humidity;BMP_temperature;BMP_pressure;BME280_temperature;BME280_humidity;BME280_pressure;Samples;Min_cycle;Max_cycle;Signal;HPM_P1;HPM_P2
2022/04/17 00:01:45;;;;;;;7.95;5.13;;;16.80;99.90;;;;;;5060953;28;20044;-73
2022/04/17 00:04:14;;;;;;;8.70;6.10;;;16.80;99.90;;;;;;5058378;28;20506;-73
2022/04/17 00:06:42;;;;;;;10.48;6.45;;;16.80;99.90;;;;;;5054326;28;20402;-73
2022/04/17 00:09:10;;;;;;;9.00;5.20;;;16.80;99.90;;;;;;5051997;28;20056;-75
2022/04/17 00:11:38;;;;;;;10.18;5.47;;;16.70;99.90;;;;;;5063569;28;20807;-73
2022/04/17 00:14:06;;;;;;;10.32;5.13;;;16.70;99.90;;;;;;5050358;28;20063;-73
2022/04/17 00:16:34;;;;;;;13.90;6.43;;;16.70;99.90;;;;;;5059801;28;20125;-73
2022/04/17 00:19:01;;;;;;;13.70;6.20;;;16.70;99.90;;;;;;5086251;28;20040;-73
2022/04/17 00:21:29;;;;;;;11.15;6.30;;;16.70;99.90;;;;;;5061260;28;20052;-73
2022/04/17 00:23:56;;;;;;;11.40;5.63;;;16.60;99.90;;;;;;5066661;28;20194;-74
2022/04/17 00:26:24;;;;;;;11.23;6.05;;;16.70;99.90;;;;;;5048684;28;20045;-73
2022/04/17 00:28:52;;;;;;;9.07;5.18;;;16.60;99.90;;;;;;5034546;28;20044;-73
2022/04/17 00:31:19;;;;;;;11.75;5.85;;;16.60;99.90;;;;;;5080840;28;20475;-75
2022/04/17 00:33:47;;;;;;;11.63;5.20;;;16.60;99.90;;;;;;5077454;28;20033;-73
2022/04/17 00:36:14;;;;;;;10.30;5.93;;;16.60;99.90;;;;;;5080560;28;20043;-73
2022/04/17 00:38:42;;;;;;;9.65;5.00;;;16.50;99.90;;;;;;5056631;28;20505;-74
2022/04/17 00:41:09;;;;;;;9.38;5.10;;;16.50;99.90;;;;;;5079353;28;20143;-73
2022/04/17 00:43:48;;;;;;;8.70;5.60;;;16.50;99.90;;;;;;5044715;28;20048;-74
2022/04/17 00:46:15;;;;;;;8.45;4.72;;;16.50;99.90;;;;;;5076951;28;20823;-73
2022/04/17 00:48:43;;;;;;;12.20;5.90;;;16.50;99.90;;;;;;5030566;28;20041;-74
2022/04/17 00:51:13;;;;;;;11.90;6.35;;;16.50;99.90;;;;;;5081590;28;20499;-74
2022/04/17 00:53:43;;;;;;;9.50;5.75;;;16.50;99.90;;;;;;5069201;28;20128;-74
2022/04/17 00:56:11;;;;;;;8.60;6.57;;;16.40;99.90;;;;;;5048019;28;20067;-75
2022/04/17 00:58:39;;;;;;;11.70;4.97;;;16.40;99.90;;;;;;5075214;28;20040;-74
2022/04/17 01:01:07;;;;;;;10.25;5.78;;;16.50;99.90;;;;;;5052083;28;20142;-75
2022/04/17 01:03:35;;;;;;;10.60;5.25;;;16.40;99.90;;;;;;5067045;28;20448;-73
2022/04/17 01:06:02;;;;;;;11.02;5.60;;;16.40;99.90;;;;;;5060623;28;20056;-74
2022/04/17 01:08:31;;;;;;;10.10;5.45;;;16.40;99.90;;;;;;5060520;28;20045;-74
2022/04/17 01:10:59;;;;;;;8.85;4.82;;;16.30;99.90;;;;;;5050062;28;20040;-74
2022/04/17 01:13:27;;;;;;;9.02;5.97;;;16.30;99.90;;;;;;5063887;28;20102;-75
2022/04/17 01:15:58;;;;;;;11.00;5.60;;;16.30;99.90;;;;;;5064679;28;20048;-74
2022/04/17 01:18:26;;;;;;;9.07;5.63;;;16.20;99.90;;;;;;5036698;28;20383;-74
2022/04/17 01:20:54;;;;;;;8.68;4.97;;;16.30;99.90;;;;;;5069877;28;20053;-74
2022/04/17 01:28:54;;;;;;;;;;;16.30;99.90;;;;;;5071281;28;20056;-74
2022/04/17 01:31:27;;;;;;;13.32;5.93;;;16.30;99.90;;;;;;5053391;28;19947;-74
2022/04/17 01:33:54;;;;;;;10.25;6.13;;;16.30;99.90;;;;;;5053363;28;20048;-74
2022/04/17 01:36:22;;;;;;;11.65;5.20;;;16.30;99.90;;;;;;5053132;28;20147;-75
2022/04/17 01:38:49;;;;;;;12.73;5.18;;;16.20;99.90;;;;;;5036117;28;20048;-75
2022/04/17 01:41:18;;;;;;;9.52;5.88;;;16.20;99.90;;;;;;5052482;28;20040;-74
2022/04/17 01:43:45;;;;;;;11.95;5.60;;;16.20;99.90;;;;;;5053144;28;20508;-74
2022/04/17 01:46:13;;;;;;;11.65;4.60;;;16.10;99.90;;;;;;5052830;28;20123;-75
2022/04/17 01:48:41;;;;;;;13.52;5.60;;;16.10;99.90;;;;;;5035938;28;20060;-75
2022/04/17 01:51:09;;;;;;;17.13;6.47;;;16.10;99.90;;;;;;5069201;28;20083;-74
2022/04/17 01:53:36;;;;;;;9.90;4.75;;;16.00;99.90;;;;;;5053203;28;20043;-74
2022/04/17 01:56:04;;;;;;;12.38;5.28;;;16.00;99.90;;;;;;5069573;28;20052;-75
2022/04/17 01:58:32;;;;;;;13.38;5.90;;;16.00;99.90;;;;;;5069702;28;20187;-75
2022/04/17 02:00:59;;;;;;;9.73;5.72;;;16.00;99.90;;;;;;5052905;28;20041;-74
2022/04/17 02:03:27;;;;;;;9.73;4.95;;;16.00;99.80;;;;;;5072577;28;20066;-74
2022/04/17 02:05:55;;;;;;;11.35;4.93;;;16.00;99.80;;;;;;5055773;28;20044;-75
2022/04/17 02:08:23;;;;;;;13.23;4.72;;;16.00;99.70;;;;;;5039102;28;20864;-74
2022/04/17 02:10:51;;;;;;;11.60;5.72;;;16.00;99.70;;;;;;5090585;28;20044;-74
2022/04/17 02:13:19;;;;;;;12.80;6.60;;;16.10;99.60;;;;;;5056290;28;20044;-75
2022/04/17 02:15:49;;;;;;;11.85;5.90;;;16.00;99.40;;;;;;5055752;28;20044;-75
2022/04/17 02:18:17;;;;;;;11.40;4.78;;;16.00;99.40;;;;;;5072429;28;20716;-75
2022/04/17 02:20:45;;;;;;;10.43;4.95;;;16.00;99.30;;;;;;5039194;28;20055;-75
2022/04/17 02:23:14;;;;;;;11.07;5.68;;;16.00;99.10;;;;;;5090869;28;20064;-74
2022/04/17 02:25:41;;;;;;;12.57;5.13;;;15.90;99.00;;;;;;5055764;28;20076;-75
2022/04/17 02:28:09;;;;;;;17.80;5.65;;;15.90;99.10;;;;;;5055759;28;20070;-75
2022/04/17 02:30:37;;;;;;;12.00;5.05;;;15.90;98.90;;;;;;5055464;28;20082;-74
2022/04/17 02:33:04;;;;;;;11.77;4.22;;;15.90;98.80;;;;;;5039534;28;20048;-74
2022/04/17 02:35:32;;;;;;;14.00;4.65;;;15.90;98.90;;;;;;5065494;28;20044;-75
2022/04/17 02:37:59;;;;;;;8.77;4.50;;;16.00;98.80;;;;;;5057962;28;20036;-74
2022/04/17 02:40:27;;;;;;;15.85;5.45;;;15.90;98.80;;;;;;5023255;28;20053;-75
2022/04/17 02:42:55;;;;;;;8.80;3.75;;;15.90;98.70;;;;;;5041711;28;20044;-75
2022/04/17 02:45:22;;;;;;;9.70;4.55;;;15.90;98.70;;;;;;5025035;28;20542;-76
2022/04/17 02:47:51;;;;;;;11.38;4.45;;;15.90;98.70;;;;;;5052152;28;20044;-75
2022/04/17 02:50:22;;;;;;;11.95;4.55;;;15.90;98.70;;;;;;5052581;28;20045;-75
2022/04/17 02:52:55;;;;;;;13.52;4.88;;;16.00;98.80;;;;;;5053864;28;20055;-74
2022/04/17 02:55:23;;;;;;;10.13;5.18;;;15.90;98.70;;;;;;5056475;28;20094;-75
2022/04/17 02:57:51;;;;;;;11.02;4.40;;;15.90;98.70;;;;;;5072722;28;20098;-75
2022/04/17 03:00:19;;;;;;;10.43;5.10;;;15.90;98.60;;;;;;5074119;28;20048;-75
2022/04/17 03:05:36;;;;;;;9.60;4.82;;;15.90;98.80;;;;;;5055840;28;20052;-75
2022/04/17 03:08:15;;;;;;;14.20;5.43;;;15.90;98.70;;;;;;5056091;28;20281;-74
2022/04/17 03:10:47;;;;;;;11.45;5.30;;;15.80;98.70;;;;;;5073412;28;20040;-75
2022/04/17 03:13:15;;;;;;;14.60;5.55;;;15.70;98.70;;;;;;5039635;28;20079;-75
2022/04/17 03:15:43;;;;;;;12.10;5.45;;;15.70;98.70;;;;;;5039319;28;20056;-75
2022/04/17 03:18:11;;;;;;;17.42;5.32;;;15.80;98.60;;;;;;5039142;28;20061;-75
2022/04/17 03:20:39;;;;;;;10.93;3.85;;;15.80;98.60;;;;;;5038840;28;20056;-75
2022/04/17 03:23:06;;;;;;;8.82;5.35;;;15.80;98.50;;;;;;5039352;28;20049;-75
2022/04/17 03:25:34;;;;;;;15.65;5.07;;;15.80;98.50;;;;;;5055467;28;20044;-75
2022/04/17 03:28:02;;;;;;;21.17;5.97;;;15.70;98.40;;;;;;5039062;28;20053;-76
2022/04/17 03:30:29;;;;;;;11.40;5.10;;;15.70;98.30;;;;;;5039019;28;20067;-75
2022/04/17 03:32:57;;;;;;;7.50;5.00;;;15.70;98.20;;;;;;5039071;28;20048;-75
2022/04/17 03:35:25;;;;;;;8.27;4.10;;;15.70;98.10;;;;;;5038777;28;20825;-75
2022/04/17 03:37:55;;;;;;;9.55;5.38;;;15.70;98.00;;;;;;5055196;28;20054;-75
2022/04/17 03:40:23;;;;;;;14.90;5.95;;;15.70;98.10;;;;;;5075021;28;20136;-75
2022/04/17 03:42:50;;;;;;;9.07;4.55;;;15.70;98.00;;;;;;5058822;28;20109;-76
2022/04/17 03:45:18;;;;;;;13.18;6.07;;;15.70;98.10;;;;;;5058400;28;20107;-76
2022/04/17 03:47:45;;;;;;;12.07;5.15;;;15.70;98.30;;;;;;5058741;28;20051;-75
2022/04/17 03:50:13;;;;;;;9.55;5.38;;;15.70;98.90;;;;;;5092878;28;20502;-74
2022/04/17 03:52:45;;;;;;;12.65;5.60;;;15.70;99.10;;;;;;5058627;28;20058;-75
2022/04/17 03:55:13;;;;;;;10.20;4.78;;;15.60;99.30;;;;;;5075204;28;20044;-75
2022/04/17 03:57:41;;;;;;;11.20;6.85;;;15.60;99.40;;;;;;5058515;28;20553;-75
2022/04/17 04:00:12;;;;;;;9.00;6.50;;;15.70;99.50;;;;;;5058537;28;20058;-75
2022/04/17 04:02:41;;;;;;;8.40;5.18;;;15.60;99.30;;;;;;5074255;28;20048;-76
2022/04/17 04:05:10;;;;;;;11.88;5.43;;;15.60;99.30;;;;;;5073592;28;20166;-75
2022/04/17 04:07:39;;;;;;;7.72;4.28;;;15.60;99.40;;;;;;5074522;28;20055;-76
2022/04/17 04:10:08;;;;;;;9.02;5.35;;;15.60;99.30;;;;;;5074684;28;20461;-75
2022/04/17 04:12:37;;;;;;;17.45;5.70;;;15.60;99.20;;;;;;5057713;28;20687;-74
2022/04/17 04:15:06;;;;;;;8.25;4.80;;;15.60;99.10;;;;;;5057936;28;20375;-75
2022/04/17 04:17:34;;;;;;;21.55;6.30;;;15.60;99.10;;;;;;5041336;28;20044;-75
2022/04/17 04:20:07;;;;;;;10.20;5.18;;;15.60;99.00;;;;;;5057776;28;20148;-75
2022/04/17 04:22:34;;;;;;;11.48;5.28;;;15.60;98.90;;;;;;5057882;28;20448;-75
2022/04/17 04:25:02;;;;;;;7.10;4.32;;;15.60;98.80;;;;;;5040734;28;20054;-75
2022/04/17 04:30:16;;;;;;;15.45;4.93;;;15.60;99.00;;;;;;5057541;28;20123;-75
2022/04/17 04:32:53;;;;;;;12.07;5.63;;;15.60;99.10;;;;;;5057482;28;20093;-75
2022/04/17 04:35:21;;;;;;;11.82;5.38;;;15.60;98.90;;;;;;5074567;28;20405;-75
2022/04/17 04:37:49;;;;;;;10.57;5.00;;;15.50;98.80;;;;;;5057229;28;20047;-75
2022/04/17 04:40:18;;;;;;;12.63;6.18;;;15.50;98.90;;;;;;5057602;28;20048;-75
2022/04/17 04:42:45;;;;;;;10.43;5.70;;;15.50;99.00;;;;;;5057189;28;20401;-75
2022/04/17 04:47:59;;;;;;;9.27;4.88;;;15.50;98.90;;;;;;5073682;28;20097;-75
2022/04/17 04:50:29;;;;;;;8.13;4.55;;;15.60;98.90;;;;;;5057076;28;20048;-75
2022/04/17 04:52:57;;;;;;;10.65;4.25;;;15.70;99.10;;;;;;5057176;28;20478;-75
2022/04/17 04:55:25;;;;;;;10.23;5.82;;;15.70;99.10;;;;;;5040302;28;20060;-74
2022/04/17 04:57:52;;;;;;;10.75;6.90;;;15.70;99.00;;;;;;5074053;28;20056;-75
2022/04/17 05:00:20;;;;;;;11.85;5.75;;;15.70;98.90;;;;;;5056819;28;20490;-75
2022/04/17 05:02:48;;;;;;;10.88;4.28;;;15.60;98.70;;;;;;5073094;28;20078;-76
2022/04/17 05:05:15;;;;;;;15.27;4.65;;;15.70;98.50;;;;;;5040065;28;20391;-76
2022/04/17 05:07:43;;;;;;;13.27;5.22;;;15.60;98.50;;;;;;5073726;28;20093;-76
2022/04/17 05:10:10;;;;;;;13.52;5.15;;;15.60;98.60;;;;;;5056789;28;20124;-75
2022/04/17 05:12:38;;;;;;;8.57;4.30;;;15.60;98.50;;;;;;5056122;28;20131;-75
2022/04/17 05:15:06;;;;;;;9.13;4.72;;;15.60;98.50;;;;;;5073249;28;20583;-75
2022/04/17 05:17:34;;;;;;;9.65;4.97;;;15.60;98.50;;;;;;5039621;28;20063;-75
2022/04/17 05:20:02;;;;;;;10.18;5.45;;;15.70;98.40;;;;;;5073911;28;20048;-75
2022/04/17 05:22:31;;;;;;;7.20;4.05;;;15.70;98.20;;;;;;5055931;28;20052;-75
2022/04/17 05:24:59;;;;;;;15.05;4.75;;;15.70;98.00;;;;;;5072766;28;20051;-74
2022/04/17 05:27:29;;;;;;;8.07;4.78;;;15.70;98.00;;;;;;5056460;28;20044;-75
2022/04/17 05:29:57;;;;;;;12.93;4.60;;;15.80;98.00;;;;;;5040026;28;20514;-75
2022/04/17 05:32:24;;;;;;;8.30;4.03;;;15.80;97.70;;;;;;5056701;28;20040;-75
2022/04/17 05:34:52;;;;;;;8.82;4.20;;;15.70;97.80;;;;;;5056116;28;20102;-74
2022/04/17 05:37:19;;;;;;;9.48;4.60;;;15.70;97.80;;;;;;5056063;28;20433;-75
2022/04/17 05:39:47;;;;;;;9.20;3.83;;;15.80;97.80;;;;;;5072646;28;20079;-75
2022/04/17 05:42:15;;;;;;;6.80;3.42;;;15.90;97.70;;;;;;5039242;28;20050;-74
2022/04/17 05:44:45;;;;;;;7.32;3.70;;;15.90;97.40;;;;;;5072147;28;20064;-75
2022/04/17 05:47:13;;;;;;;14.15;4.15;;;15.90;97.20;;;;;;5055763;28;20047;-75
2022/04/17 05:49:42;;;;;;;8.40;4.22;;;15.90;97.00;;;;;;5055242;28;20048;-75
2022/04/17 05:52:11;;;;;;;8.85;3.67;;;16.10;96.90;;;;;;5056530;28;20138;-75
2022/04/17 05:54:43;;;;;;;7.68;4.15;;;16.30;96.70;;;;;;5055490;28;20406;-74
2022/04/17 05:57:11;;;;;;;7.38;3.38;;;16.50;96.40;;;;;;5039286;28;20044;-74
2022/04/17 05:59:39;;;;;;;11.80;4.18;;;16.60;96.10;;;;;;5072692;28;20446;-74
2022/04/17 06:02:08;;;;;;;12.20;4.00;;;16.70;95.90;;;;;;5039273;28;20048;-75
2022/04/17 06:04:38;;;;;;;14.30;4.88;;;16.90;95.70;;;;;;5072687;28;20067;-75
2022/04/17 06:07:05;;;;;;;7.45;3.45;;;17.00;95.40;;;;;;5039208;28;20052;-75
2022/04/17 06:09:33;;;;;;;11.35;5.13;;;17.10;95.30;;;;;;5039122;28;20052;-74
2022/04/17 06:12:01;;;;;;;22.60;5.13;;;17.10;95.30;;;;;;5090191;28;20044;-74
2022/04/17 06:14:29;;;;;;;11.38;4.10;;;17.20;95.20;;;;;;5053906;28;20040;-74
2022/04/17 06:16:56;;;;;;;18.17;4.35;;;17.30;94.80;;;;;;5035341;28;20141;-76
2022/04/17 06:19:25;;;;;;;10.15;3.45;;;17.10;94.60;;;;;;5036090;28;20147;-75
2022/04/17 06:21:53;;;;;;;7.00;3.22;;;17.10;95.00;;;;;;5052301;28;20098;-75
2022/04/17 06:24:20;;;;;;;11.80;3.78;;;17.30;95.10;;;;;;5051696;28;20052;-74
2022/04/17 06:26:48;;;;;;;10.73;3.28;;;17.40;94.80;;;;;;5018339;28;20059;-76
2022/04/17 06:29:16;;;;;;;7.80;3.80;;;17.50;94.60;;;;;;5052279;28;20061;-76
2022/04/17 06:31:45;;;;;;;10.48;5.00;;;17.70;94.60;;;;;;5052387;28;20041;-75
2022/04/17 06:34:15;;;;;;;7.95;3.53;;;17.80;94.40;;;;;;5052174;28;20071;-76
2022/04/17 06:36:43;;;;;;;10.20;3.80;;;17.90;94.20;;;;;;5069673;28;20098;-76
2022/04/17 06:39:10;;;;;;;7.22;3.40;;;18.00;94.00;;;;;;5018564;28;20097;-76
2022/04/17 06:41:38;;;;;;;7.28;3.20;;;18.00;93.90;;;;;;5052021;28;20478;-76
2022/04/17 06:44:06;;;;;;;11.30;3.25;;;18.20;93.80;;;;;;5034709;28;20193;-75
2022/04/17 06:46:33;;;;;;;11.95;3.28;;;18.30;93.60;;;;;;5051697;28;20048;-76
2022/04/17 06:49:01;;;;;;;7.03;3.40;;;18.50;93.30;;;;;;5035326;28;20053;-76
2022/04/17 06:51:29;;;;;;;13.18;4.05;;;18.40;93.20;;;;;;5018928;28;20058;-74
2022/04/17 06:53:56;;;;;;;6.22;3.15;;;18.50;93.00;;;;;;5051942;28;20609;-75
2022/04/17 06:56:24;;;;;;;7.38;3.15;;;18.60;92.90;;;;;;5035355;28;20044;-75
2022/04/17 06:58:52;;;;;;;17.08;4.43;;;18.60;92.70;;;;;;5035085;28;20098;-76
2022/04/17 07:01:19;;;;;;;14.68;4.20;;;18.70;92.60;;;;;;5035652;28;20044;-75
2022/04/17 07:03:47;;;;;;;7.78;3.05;;;18.60;92.80;;;;;;5051354;28;20434;-74
2022/04/17 07:06:15;;;;;;;7.70;2.90;;;18.60;92.60;;;;;;5051603;28;20044;-74
2022/04/17 07:08:43;;;;;;;7.88;2.38;;;18.60;92.60;;;;;;5041962;28;20570;-74
2022/04/17 07:11:10;;;;;;;5.13;3.22;;;18.80;92.50;;;;;;5051811;28;20402;-74
2022/04/17 07:13:39;;;;;;;15.35;3.92;;;18.70;92.10;;;;;;5051456;28;20082;-74
2022/04/17 07:16:07;;;;;;;10.48;3.20;;;18.40;92.20;;;;;;5046539;28;20386;-74
2022/04/17 07:18:35;;;;;;;10.00;3.88;;;18.20;92.30;;;;;;5065997;28;20063;-74
2022/04/17 07:21:03;;;;;;;12.43;2.80;;;18.20;92.30;;;;;;5044174;28;20051;-75
2022/04/17 07:23:30;;;;;;;13.70;3.70;;;18.20;92.20;;;;;;5077544;28;20520;-75
2022/04/17 07:25:58;;;;;;;17.33;4.88;;;18.20;92.40;;;;;;5066986;28;20046;-75
2022/04/17 07:28:26;;;;;;;5.30;2.50;;;18.20;92.70;;;;;;5078397;28;20032;-78
2022/04/17 07:30:53;;;;;;;7.55;3.25;;;18.20;92.50;;;;;;5052347;28;20577;-74
2022/04/17 07:33:22;;;;;;;6.93;2.80;;;18.20;92.70;;;;;;5060895;28;20043;-74
2022/04/17 07:35:50;;;;;;;7.38;3.17;;;18.20;92.30;;;;;;5042651;28;20517;-76
2022/04/17 07:38:17;;;;;;;15.30;3.40;;;18.20;92.20;;;;;;5082950;28;20040;-76
2022/04/17 07:40:45;;;;;;;7.95;3.15;;;18.30;92.30;;;;;;5060513;28;20047;-74
2022/04/17 07:43:13;;;;;;;8.13;2.85;;;18.50;92.00;;;;;;5082700;28;20052;-75
2022/04/17 07:45:41;;;;;;;9.52;2.58;;;18.40;91.40;;;;;;5050221;28;20238;-77
2022/04/17 07:48:08;;;;;;;10.57;2.65;;;18.60;91.20;;;;;;5056697;28;20051;-76
2022/04/17 07:50:36;;;;;;;4.82;2.70;;;18.70;91.20;;;;;;5066620;28;20056;-79
2022/04/17 07:53:04;;;;;;;9.07;2.38;;;18.80;91.30;;;;;;5048171;28;20044;-76
2022/04/17 07:55:32;;;;;;;6.90;3.60;;;18.90;91.40;;;;;;5059407;28;20174;-76
2022/04/17 07:58:16;;;;;;;14.43;2.58;;;19.10;91.30;;;;;;5078332;28;20044;-75
2022/04/17 08:00:57;;;;;;;8.18;2.63;;;19.20;90.80;;;;;;5063464;28;20036;-76
2022/04/17 08:06:06;;;;;;;8.05;2.08;;;19.30;90.20;;;;;;5062710;28;20054;-74
2022/04/17 08:08:35;;;;;;;8.13;3.28;;;19.30;90.00;;;;;;5061019;28;20534;-76
2022/04/17 08:11:06;;;;;;;7.07;3.00;;;19.30;90.10;;;;;;5051124;28;20048;-76
2022/04/17 08:13:34;;;;;;;6.57;2.05;;;19.50;90.20;;;;;;5080993;28;20446;-75
2022/04/17 08:16:04;;;;;;;10.77;2.67;;;19.50;90.10;;;;;;5088617;28;20062;-76
2022/04/17 08:18:36;;;;;;;7.40;3.97;;;19.40;90.00;;;;;;5064204;28;20055;-75
2022/04/17 08:21:05;;;;;;;9.43;2.90;;;19.40;90.50;;;;;;5082573;28;20047;-75
2022/04/17 08:23:35;;;;;;;9.13;3.03;;;19.60;90.40;;;;;;5048826;28;20069;-75
2022/04/17 08:26:03;;;;;;;10.43;2.97;;;19.70;90.20;;;;;;5091348;28;20047;-75
2022/04/17 08:28:31;;;;;;;10.30;3.22;;;19.80;90.10;;;;;;5098862;28;20048;-75
2022/04/17 08:30:59;;;;;;;8.35;2.75;;;19.90;90.00;;;;;;5063545;28;20080;-74
2022/04/17 08:33:26;;;;;;;10.23;2.40;;;20.00;89.30;;;;;;5047116;28;20051;-75
2022/04/17 08:35:55;;;;;;;9.80;2.72;;;20.00;89.30;;;;;;5085383;28;20097;-75
2022/04/17 08:38:23;;;;;;;11.95;3.10;;;19.90;89.30;;;;;;5080328;28;20043;-74
2022/04/17 08:40:50;;;;;;;6.53;2.90;;;20.00;89.20;;;;;;5079729;28;20701;-74
2022/04/17 08:43:18;;;;;;;7.47;2.80;;;19.80;88.90;;;;;;5079013;28;20047;-74
2022/04/17 08:45:50;;;;;;;8.15;2.72;;;19.80;89.10;;;;;;5063267;28;20054;-74
2022/04/17 08:48:18;;;;;;;8.05;2.97;;;19.80;89.80;;;;;;5084194;28;20062;-75
2022/04/17 08:50:49;;;;;;;11.07;3.05;;;19.80;89.90;;;;;;5074885;28;20032;-74
2022/04/17 08:53:17;;;;;;;8.30;2.70;;;20.00;89.60;;;;;;5059503;28;20052;-75
2022/04/17 08:55:49;;;;;;;5.75;2.55;;;20.00;89.30;;;;;;5091705;28;20048;-75
2022/04/17 08:58:17;;;;;;;10.55;3.08;;;20.00;89.20;;;;;;5073464;28;20154;-76
2022/04/17 09:00:45;;;;;;;8.38;2.88;;;19.90;89.40;;;;;;5073827;28;20047;-75
2022/04/17 09:03:13;;;;;;;6.47;2.25;;;20.00;88.90;;;;;;5073670;28;20367;-76
2022/04/17 09:05:41;;;;;;;9.85;2.42;;;20.00;89.10;;;;;;5073440;28;20182;-75
2022/04/17 09:08:18;;;;;;;5.68;2.13;;;20.10;88.50;;;;;;5057138;28;20044;-74
2022/04/17 09:10:56;;;;;;;6.13;2.15;;;20.00;88.40;;;;;;5056265;28;20075;-75
2022/04/17 09:13:33;;;;;;;8.30;1.98;;;20.00;88.60;;;;;;5056664;28;20051;-74
2022/04/17 09:16:04;;;;;;;8.65;3.10;;;20.00;88.90;;;;;;5073661;28;20379;-75
2022/04/17 09:18:32;;;;;;;6.28;2.83;;;20.10;89.00;;;;;;5056854;28;20052;-76
2022/04/17 09:21:03;;;;;;;6.93;3.00;;;20.10;89.10;;;;;;5039568;28;20039;-75
2022/04/17 09:23:40;;;;;;;7.10;2.05;;;20.00;89.00;;;;;;5073293;28;20044;-75
2022/04/17 09:26:08;;;;;;;8.27;2.08;;;19.90;89.20;;;;;;5090594;28;20447;-76
2022/04/17 09:28:37;;;;;;;7.95;2.50;;;19.90;88.70;;;;;;5055641;28;20055;-76
2022/04/17 09:31:10;;;;;;;6.97;3.42;;;19.90;88.80;;;;;;5055932;28;20063;-75
2022/04/17 09:33:40;;;;;;;8.23;2.90;;;20.00;89.00;;;;;;5072811;28;20074;-75
2022/04/17 09:36:09;;;;;;;6.57;2.15;;;20.00;89.20;;;;;;5039790;28;20238;-76
2022/04/17 09:38:40;;;;;;;9.98;3.03;;;20.00;88.70;;;;;;5056250;28;20044;-76
2022/04/17 09:41:14;;;;;;;9.07;2.50;;;20.00;89.40;;;;;;5055850;28;20056;-75
2022/04/17 09:43:47;;;;;;;13.05;4.38;;;20.00;89.40;;;;;;5072641;28;20063;-73
2022/04/17 09:46:15;;;;;;;10.15;3.88;;;20.10;90.00;;;;;;5055560;28;20070;-73
2022/04/17 09:48:44;;;;;;;10.18;3.78;;;20.30;90.00;;;;;;5056384;28;20040;-72
2022/04/17 09:51:22;;;;;;;9.75;3.00;;;20.40;89.20;;;;;;5073061;28;20051;-72
2022/04/17 09:53:59;;;;;;;6.07;1.98;;;20.60;89.10;;;;;;5073025;28;20500;-75
2022/04/17 09:56:43;;;;;;;9.18;2.75;;;20.50;88.10;;;;;;5056263;28;20059;-74
2022/04/17 09:59:22;;;;;;;8.02;2.65;;;20.50;88.10;;;;;;5072705;28;20155;-74
2022/04/17 10:01:55;;;;;;;8.70;3.38;;;20.50;88.30;;;;;;5055383;28;20058;-73
2022/04/17 10:04:24;;;;;;;6.93;2.47;;;20.50;88.00;;;;;;5090789;28;20052;-73
2022/04/17 10:06:54;;;;;;;7.07;2.58;;;20.30;87.80;;;;;;5055570;28;20052;-73
2022/04/17 10:09:22;;;;;;;7.70;2.47;;;20.30;89.00;;;;;;5055771;28;20135;-73
2022/04/17 10:11:51;;;;;;;7.75;2.70;;;20.30;88.40;;;;;;5069453;28;20048;-74
2022/04/17 10:14:19;;;;;;;8.77;2.30;;;20.30;88.40;;;;;;5067199;28;20050;-75
2022/04/17 10:16:49;;;;;;;11.05;2.75;;;20.30;88.90;;;;;;5061910;28;20048;-74
2022/04/17 10:19:24;;;;;;;5.75;2.13;;;20.40;89.00;;;;;;5096481;28;20043;-72
2022/04/17 10:21:56;;;;;;;5.50;2.53;;;20.30;88.60;;;;;;5043009;28;20102;-71
2022/04/17 10:24:24;;;;;;;6.32;2.70;;;20.40;89.00;;;;;;5065120;28;20058;-74
2022/04/17 10:26:54;;;;;;;8.60;2.20;;;20.50;88.70;;;;;;5076625;28;20050;-73
2022/04/17 10:29:41;;;;;;;10.00;2.58;;;20.50;88.60;;;;;;5078447;28;20036;-74
2022/04/17 10:32:08;;;;;;;5.85;1.85;;;20.60;88.50;;;;;;5074434;28;20047;-74
2022/04/17 10:34:36;;;;;;;7.65;2.83;;;20.50;88.40;;;;;;5045884;28;20545;-73
2022/04/17 10:37:22;;;;;;;8.77;3.00;;;20.70;88.60;;;;;;5054665;28;20066;-73
2022/04/17 10:39:57;;;;;;;4.70;2.53;;;20.70;87.70;;;;;;5055709;28;20059;-74
2022/04/17 10:42:35;;;;;;;5.97;2.50;;;20.40;87.30;;;;;;5090323;28;20056;-73
2022/04/17 10:45:08;;;;;;;6.57;2.10;;;20.30;88.30;;;;;;5070131;28;20051;-74
2022/04/17 10:47:35;;;;;;;6.20;2.10;;;20.30;88.20;;;;;;5055065;28;20048;-74
2022/04/17 10:50:07;;;;;;;10.93;2.30;;;20.40;88.80;;;;;;5039358;28;20485;-76
2022/04/17 10:52:36;;;;;;;5.85;2.25;;;20.40;88.40;;;;;;5072457;28;20054;-74
2022/04/17 10:55:09;;;;;;;8.25;2.10;;;20.30;88.50;;;;;;5055045;28;20147;-75
2022/04/17 10:57:48;;;;;;;6.13;2.45;;;20.20;88.50;;;;;;5071883;28;20051;-74
2022/04/17 11:00:33;;;;;;;5.90;2.47;;;20.20;88.50;;;;;;5055284;28;20264;-75
2022/04/17 11:03:26;;;;;;;7.85;2.72;;;20.20;88.80;;;;;;5040757;28;20066;-74
2022/04/17 11:08:56;;;;;;;5.53;2.50;;;20.10;88.50;;;;;;5071796;28;20063;-80
2022/04/17 11:11:43;;;;;;;5.78;2.55;;;20.00;88.20;;;;;;5055305;28;20130;-74
2022/04/17 11:14:18;;;;;;;5.20;2.63;;;20.00;88.90;;;;;;5057167;28;20036;-75
2022/04/17 11:16:53;;;;;;;7.78;2.70;;;20.00;88.30;;;;;;5093514;28;20048;-75
2022/04/17 11:19:26;;;;;;;4.40;2.03;;;20.00;89.10;;;;;;5075858;28;20058;-74
2022/04/17 11:21:56;;;;;;;8.30;3.08;;;20.10;88.80;;;;;;5058801;28;20331;-74
2022/04/17 11:24:24;;;;;;;8.75;3.25;;;20.10;88.90;;;;;;5059122;28;20067;-74
2022/04/17 11:26:54;;;;;;;8.45;3.08;;;20.10;88.30;;;;;;5058604;28;20048;-75
2022/04/17 11:29:48;;;;;;;8.65;2.50;;;20.10;88.80;;;;;;5056212;28;20139;-75
2022/04/17 11:32:19;;;;;;;8.75;2.60;;;20.00;88.80;;;;;;5075290;28;20044;-75
2022/04/17 11:34:54;;;;;;;8.65;3.08;;;20.00;88.40;;;;;;5058825;28;20563;-75
2022/04/17 11:37:23;;;;;;;9.43;2.10;;;19.70;88.40;;;;;;5075547;28;20044;-74
2022/04/17 11:39:52;;;;;;;9.18;2.88;;;19.60;89.00;;;;;;5059089;28;20127;-79
2022/04/17 11:42:20;;;;;;;4.68;2.25;;;19.60;89.90;;;;;;5058455;28;20044;-75
2022/04/17 11:44:49;;;;;;;7.68;1.95;;;19.40;89.60;;;;;;5075348;28;20555;-74
2022/04/17 11:47:21;;;;;;;14.60;2.47;;;19.40;90.00;;;;;;5058671;28;20044;-74
2022/04/17 11:49:49;;;;;;;4.82;1.80;;;19.40;90.10;;;;;;5075162;28;20113;-74
2022/04/17 11:52:19;;;;;;;7.70;2.97;;;19.40;89.80;;;;;;5058175;28;20052;-74
2022/04/17 11:54:48;;;;;;;7.38;2.72;;;19.30;89.80;;;;;;5058299;28;20201;-74
2022/04/17 11:57:19;;;;;;;7.50;2.28;;;19.30;89.70;;;;;;5041856;28;20056;-76
2022/04/17 11:59:52;;;;;;;6.78;2.33;;;19.20;89.60;;;;;;5058226;28;20064;-75
2022/04/17 12:02:21;;;;;;;9.35;2.70;;;19.10;90.00;;;;;;5058049;28;20502;-76
2022/04/17 12:04:57;;;;;;;7.97;1.98;;;19.00;90.10;;;;;;5058257;28;20055;-74
2022/04/17 12:07:26;;;;;;;7.25;2.65;;;19.00;90.20;;;;;;5058176;28;20164;-75
2022/04/17 12:10:10;;;;;;;6.03;2.67;;;19.00;90.20;;;;;;5074578;28;20071;-75
2022/04/17 12:12:42;;;;;;;7.55;2.90;;;19.00;90.20;;;;;;5041040;28;20283;-74
2022/04/17 12:15:15;;;;;;;7.80;3.15;;;18.90;90.00;;;;;;5057808;28;20044;-77
2022/04/17 12:17:43;;;;;;;9.70;2.58;;;19.00;90.10;;;;;;5074817;28;20127;-74
2022/04/17 12:20:14;;;;;;;7.43;2.58;;;18.90;90.10;;;;;;5058056;28;20040;-75
2022/04/17 12:22:42;;;;;;;4.40;2.28;;;18.80;90.10;;;;;;5057282;28;20044;-75
2022/04/17 12:25:40;;;;;;;9.10;2.60;;;18.80;90.10;;;;;;5055781;28;20142;-76
2022/04/17 12:28:08;;;;;;;7.25;2.10;;;18.70;90.40;;;;;;5042073;28;20045;-74
2022/04/17 12:30:35;;;;;;;7.05;2.40;;;18.70;90.10;;;;;;5054123;28;20155;-75
2022/04/17 12:33:20;;;;;;;4.88;2.78;;;18.60;90.20;;;;;;5021260;28;20052;-74
2022/04/17 12:36:04;;;;;;;7.85;2.92;;;18.50;90.10;;;;;;5037642;28;20507;-75
2022/04/17 12:38:32;;;;;;;10.77;3.03;;;18.40;90.30;;;;;;5037709;28;20059;-75
2022/04/17 12:40:59;;;;;;;5.75;3.13;;;18.30;89.50;;;;;;5037880;28;20398;-74
2022/04/17 12:43:30;;;;;;;3.67;1.98;;;18.20;89.90;;;;;;5054002;28;20424;-75
2022/04/17 12:46:04;;;;;;;8.82;2.47;;;18.20;90.10;;;;;;5037119;28;20052;-75
2022/04/17 12:48:36;;;;;;;7.35;2.20;;;18.30;90.10;;;;;;5053683;28;20049;-75
2022/04/17 12:51:06;;;;;;;9.02;2.22;;;18.50;90.40;;;;;;5053138;28;20044;-74
2022/04/17 12:53:43;;;;;;;4.68;2.42;;;18.50;89.70;;;;;;5071110;28;20055;-75
2022/04/17 12:56:12;;;;;;;6.82;2.80;;;18.50;89.50;;;;;;5054088;28;20049;-76
2022/04/17 12:58:53;;;;;;;4.60;1.98;;;18.60;89.90;;;;;;5053267;28;20087;-74
2022/04/17 13:01:25;;;;;;;6.72;2.85;;;18.60;90.00;;;;;;5053987;28;20048;-74
2022/04/17 13:04:20;;;;;;;8.07;2.35;;;18.60;89.90;;;;;;5054183;28;20493;-74
2022/04/17 13:07:11;;;;;;;10.35;3.20;;;18.50;90.00;;;;;;5053130;28;20041;-75
2022/04/17 13:09:55;;;;;;;7.88;3.05;;;18.40;89.30;;;;;;5053287;28;20056;-75
2022/04/17 13:12:33;;;;;;;7.60;2.67;;;18.50;90.00;;;;;;5053768;28;20048;-74
2022/04/17 13:15:05;;;;;;;7.82;2.65;;;18.40;89.70;;;;;;5037106;28;20048;-76
2022/04/17 13:17:48;;;;;;;7.95;2.67;;;18.40;89.50;;;;;;5070942;28;20048;-76